sensor_id;sensor_type;location;lat;lon;timestamp;temperature;humidity
22838;DHT22;11585;51.450;-0.240;2023-01-31T00:03:57;7.70;99.90
22838;DHT22;11585;51.450;-0.240;2023-01-31T00:06:30;7.70;99.90
22838;DHT22;11585;51.450;-0.240;2023-01-31T00:09:00;7.60;99.90
22838;DHT22;11585;51.450;-0.240;2023-01-31T00:11:28;7.60;99.90
22838;DHT22;11585;51.450;-0.240;2023-01-31T00:13:54;7.60;99.90
22838;DHT22;11585;51.450;-0.240;2023-01-31T00:16:21;7.60;99.90
22838;DHT22;11585;51.450;-0.240;2023-01-31T00:18:47;7.60;99.90
22838;DHT22;11585;51.450;-0.240;2023-01-31T00:21:15;7.70;99.90
22838;DHT22;11585;51.450;-0.240;2023-01-31T00:26:45;7.70;99.90
22838;DHT22;11585;51.450;-0.240;2023-01-31T00:29:12;7.60;99.90
22838;DHT22;11585;51.450;-0.240;2023-01-31T00:34:25;7.60;99.90
22838;DHT22;11585;51.450;-0.240;2023-01-31T00:36:51;7.60;99.90
22838;DHT22;11585;51.450;-0.240;2023-01-31T00:39:17;7.60;99.90
22838;DHT22;11585;51.450;-0.240;2023-01-31T00:41:43;7.60;99.90
22838;DHT22;11585;51.450;-0.240;2023-01-31T00:44:09;7.60;99.90
22838;DHT22;11585;51.450;-0.240;2023-01-31T00:46:38;8.20;99.90
22838;DHT22;11585;51.450;-0.240;2023-01-31T00:49:03;7.60;99.90
22838;DHT22;11585;51.450;-0.240;2023-01-31T00:51:29;7.60;99.90
22838;DHT22;11585;51.450;-0.240;2023-01-31T00:53:55;7.60;99.90
22838;DHT22;11585;51.450;-0.240;2023-01-31T00:56:22;7.60;99.90
22838;DHT22;11585;51.450;-0.240;2023-01-31T00:58:48;7.60;99.90
22838;DHT22;11585;51.450;-0.240;2023-01-31T01:01:22;8.50;99.90
22838;DHT22;11585;51.450;-0.240;2023-01-31T01:04:08;7.60;99.90
22838;DHT22;11585;51.450;-0.240;2023-01-31T01:06:34;7.60;99.90
22838;DHT22;11585;51.450;-0.240;2023-01-31T01:08:59;7.70;99.90
22838;DHT22;11585;51.450;-0.240;2023-01-31T01:11:30;7.70;99.90
22838;DHT22;11585;51.450;-0.240;2023-01-31T01:13:57;7.60;99.90
22838;DHT22;11585;51.450;-0.240;2023-01-31T01:16:26;7.60;99.90
22838;DHT22;11585;51.450;-0.240;2023-01-31T01:18:52;8.20;99.90
22838;DHT22;11585;51.450;-0.240;2023-01-31T01:21:26;7.60;99.90
22838;DHT22;11585;51.450;-0.240;2023-01-31T01:23:59;7.60;99.90
22838;DHT22;11585;51.450;-0.240;2023-01-31T01:26:27;7.70;99.90
22838;DHT22;11585;51.450;-0.240;2023-01-31T01:28:55;7.60;99.90
22838;DHT22;11585;51.450;-0.240;2023-01-31T01:31:21;7.90;99.90
22838;DHT22;11585;51.450;-0.240;2023-01-31T01:34:00;7.60;99.90
22838;DHT22;11585;51.450;-0.240;2023-01-31T01:36:27;7.60;99.90
22838;DHT22;11585;51.450;-0.240;2023-01-31T01:38:53;8.00;99.90
22838;DHT22;11585;51.450;-0.240;2023-01-31T01:41:19;8.10;99.90
22838;DHT22;11585;51.450;-0.240;2023-01-31T01:46:42;7.70;99.90
22838;DHT22;11585;51.450;-0.240;2023-01-31T01:51:42;7.60;99.90
22838;DHT22;11585;51.450;-0.240;2023-01-31T01:54:14;7.60;99.90
22838;DHT22;11585;51.450;-0.240;2023-01-31T01:56:44;7.60;99.90
22838;DHT22;11585;51.450;-0.240;2023-01-31T01:59:21;8.80;99.90
22838;DHT22;11585;51.450;-0.240;2023-01-31T02:02:07;7.70;99.90
22838;DHT22;11585;51.450;-0.240;2023-01-31T02:04:36;7.60;99.90
22838;DHT22;11585;51.450;-0.240;2023-01-31T02:07:03;8.10;99.90
22838;DHT22;11585;51.450;-0.240;2023-01-31T02:09:33;7.90;99.90
22838;DHT22;11585;51.450;-0.240;2023-01-31T02:12:02;7.70;99.90
22838;DHT22;11585;51.450;-0.240;2023-01-31T02:14:28;7.70;99.90
22838;DHT22;11585;51.450;-0.240;2023-01-31T02:16:54;7.70;99.90
22838;DHT22;11585;51.450;-0.240;2023-01-31T02:22:23;7.70;99.90
22838;DHT22;11585;51.450;-0.240;2023-01-31T02:34:01;7.60;99.90
22838;DHT22;11585;51.450;-0.240;2023-01-31T02:39:55;7.60;99.90
22838;DHT22;11585;51.450;-0.240;2023-01-31T02:42:52;7.60;99.90
22838;DHT22;11585;51.450;-0.240;2023-01-31T02:46:01;7.60;99.90
22838;DHT22;11585;51.450;-0.240;2023-01-31T02:48:50;7.60;99.90
22838;DHT22;11585;51.450;-0.240;2023-01-31T02:51:24;7.60;99.90
22838;DHT22;11585;51.450;-0.240;2023-01-31T02:54:04;7.60;99.90
22838;DHT22;11585;51.450;-0.240;2023-01-31T02:56:34;7.70;99.90
22838;DHT22;11585;51.450;-0.240;2023-01-31T02:59:04;7.60;99.90
22838;DHT22;11585;51.450;-0.240;2023-01-31T03:01:45;7.60;99.90
22838;DHT22;11585;51.450;-0.240;2023-01-31T03:04:12;8.00;99.90
22838;DHT22;11585;51.450;-0.240;2023-01-31T03:07:03;7.70;99.90
22838;DHT22;11585;51.450;-0.240;2023-01-31T03:18:19;7.70;99.90
22838;DHT22;11585;51.450;-0.240;2023-01-31T03:21:01;7.70;99.90
22838;DHT22;11585;51.450;-0.240;2023-01-31T03:26:32;7.70;99.90
22838;DHT22;11585;51.450;-0.240;2023-01-31T03:29:00;7.60;99.90
22838;DHT22;11585;51.450;-0.240;2023-01-31T03:31:39;7.90;99.90
22838;DHT22;11585;51.450;-0.240;2023-01-31T03:34:08;7.70;99.90
22838;DHT22;11585;51.450;-0.240;2023-01-31T03:36:52;7.70;99.90
22838;DHT22;11585;51.450;-0.240;2023-01-31T03:39:40;7.10;99.90
22838;DHT22;11585;51.450;-0.240;2023-01-31T03:45:22;7.70;99.90
22838;DHT22;11585;51.450;-0.240;2023-01-31T03:47:50;7.70;99.90
22838;DHT22;11585;51.450;-0.240;2023-01-31T03:50:40;8.20;99.90
22838;DHT22;11585;51.450;-0.240;2023-01-31T03:53:17;7.70;99.90
22838;DHT22;11585;51.450;-0.240;2023-01-31T03:56:46;7.70;99.90
22838;DHT22;11585;51.450;-0.240;2023-01-31T03:58:59;7.70;99.90
22838;DHT22;11585;51.450;-0.240;2023-01-31T04:01:27;8.00;99.90
22838;DHT22;11585;51.450;-0.240;2023-01-31T04:04:04;7.70;99.90
22838;DHT22;11585;51.450;-0.240;2023-01-31T04:06:32;7.80;99.90
22838;DHT22;11585;51.450;-0.240;2023-01-31T04:08:58;7.90;99.90
22838;DHT22;11585;51.450;-0.240;2023-01-31T04:11:25;7.80;99.90
22838;DHT22;11585;51.450;-0.240;2023-01-31T04:17:13;7.80;99.90
22838;DHT22;11585;51.450;-0.240;2023-01-31T04:19:38;7.80;99.90
22838;DHT22;11585;51.450;-0.240;2023-01-31T04:22:08;7.80;99.90
22838;DHT22;11585;51.450;-0.240;2023-01-31T04:24:34;7.80;99.90
22838;DHT22;11585;51.450;-0.240;2023-01-31T04:26:59;7.80;99.90
22838;DHT22;11585;51.450;-0.240;2023-01-31T04:29:25;7.80;99.90
22838;DHT22;11585;51.450;-0.240;2023-01-31T04:31:51;7.80;99.90
22838;DHT22;11585;51.450;-0.240;2023-01-31T04:34:16;7.80;99.90
22838;DHT22;11585;51.450;-0.240;2023-01-31T04:36:42;8.00;99.90
22838;DHT22;11585;51.450;-0.240;2023-01-31T04:39:09;7.80;99.90
22838;DHT22;11585;51.450;-0.240;2023-01-31T04:41:40;7.80;99.90
22838;DHT22;11585;51.450;-0.240;2023-01-31T04:44:06;7.90;99.90
22838;DHT22;11585;51.450;-0.240;2023-01-31T04:46:31;7.80;99.90
22838;DHT22;11585;51.450;-0.240;2023-01-31T04:48:57;7.80;99.90
22838;DHT22;11585;51.450;-0.240;2023-01-31T04:51:22;7.90;99.90
22838;DHT22;11585;51.450;-0.240;2023-01-31T04:53:50;8.00;99.90
22838;DHT22;11585;51.450;-0.240;2023-01-31T04:56:16;7.90;99.90
22838;DHT22;11585;51.450;-0.240;2023-01-31T04:58:41;8.10;99.90
22838;DHT22;11585;51.450;-0.240;2023-01-31T05:01:07;7.90;99.90
22838;DHT22;11585;51.450;-0.240;2023-01-31T05:03:33;7.90;99.90
22838;DHT22;11585;51.450;-0.240;2023-01-31T05:05:59;8.20;99.90
22838;DHT22;11585;51.450;-0.240;2023-01-31T05:08:24;7.90;99.90
22838;DHT22;11585;51.450;-0.240;2023-01-31T05:10:57;8.70;99.90
22838;DHT22;11585;51.450;-0.240;2023-01-31T05:13:24;8.20;99.90
22838;DHT22;11585;51.450;-0.240;2023-01-31T05:15:49;7.90;99.90
22838;DHT22;11585;51.450;-0.240;2023-01-31T05:18:15;7.90;99.90
22838;DHT22;11585;51.450;-0.240;2023-01-31T05:20:41;8.00;99.90
22838;DHT22;11585;51.450;-0.240;2023-01-31T05:23:10;7.90;99.90
22838;DHT22;11585;51.450;-0.240;2023-01-31T05:25:44;7.90;99.90
22838;DHT22;11585;51.450;-0.240;2023-01-31T05:28:13;7.90;99.90
22838;DHT22;11585;51.450;-0.240;2023-01-31T05:30:39;7.90;99.90
22838;DHT22;11585;51.450;-0.240;2023-01-31T05:36:08;7.90;99.90
22838;DHT22;11585;51.450;-0.240;2023-01-31T05:38:34;8.00;99.90
22838;DHT22;11585;51.450;-0.240;2023-01-31T05:41:00;7.90;99.90
22838;DHT22;11585;51.450;-0.240;2023-01-31T05:43:27;7.90;99.90
22838;DHT22;11585;51.450;-0.240;2023-01-31T05:45:52;7.90;99.90
22838;DHT22;11585;51.450;-0.240;2023-01-31T05:48:18;8.00;99.90
22838;DHT22;11585;51.450;-0.240;2023-01-31T05:50:44;8.00;99.90
22838;DHT22;11585;51.450;-0.240;2023-01-31T05:53:11;8.00;99.90
22838;DHT22;11585;51.450;-0.240;2023-01-31T05:55:37;8.10;99.90
22838;DHT22;11585;51.450;-0.240;2023-01-31T05:58:03;9.30;99.90
22838;DHT22;11585;51.450;-0.240;2023-01-31T06:00:29;8.00;99.90
22838;DHT22;11585;51.450;-0.240;2023-01-31T06:02:59;8.00;99.90
22838;DHT22;11585;51.450;-0.240;2023-01-31T06:05:24;7.90;99.90
22838;DHT22;11585;51.450;-0.240;2023-01-31T06:07:50;8.00;99.90
22838;DHT22;11585;51.450;-0.240;2023-01-31T06:10:16;8.00;99.90
22838;DHT22;11585;51.450;-0.240;2023-01-31T06:13:02;7.90;99.90
22838;DHT22;11585;51.450;-0.240;2023-01-31T06:15:28;8.00;99.90
22838;DHT22;11585;51.450;-0.240;2023-01-31T06:17:53;7.80;99.90
22838;DHT22;11585;51.450;-0.240;2023-01-31T06:20:19;7.90;99.90
22838;DHT22;11585;51.450;-0.240;2023-01-31T06:22:45;8.50;99.90
22838;DHT22;11585;51.450;-0.240;2023-01-31T06:25:11;8.00;99.90
22838;DHT22;11585;51.450;-0.240;2023-01-31T06:27:36;8.00;99.90
22838;DHT22;11585;51.450;-0.240;2023-01-31T06:30:02;8.00;99.90
22838;DHT22;11585;51.450;-0.240;2023-01-31T06:35:36;8.00;99.90
22838;DHT22;11585;51.450;-0.240;2023-01-31T06:38:06;8.00;99.90
22838;DHT22;11585;51.450;-0.240;2023-01-31T06:40:33;7.90;99.90
22838;DHT22;11585;51.450;-0.240;2023-01-31T06:46:22;8.00;99.90
22838;DHT22;11585;51.450;-0.240;2023-01-31T06:48:48;8.00;99.90
22838;DHT22;11585;51.450;-0.240;2023-01-31T06:51:28;8.00;99.90
22838;DHT22;11585;51.450;-0.240;2023-01-31T06:53:55;8.00;99.90
22838;DHT22;11585;51.450;-0.240;2023-01-31T06:56:21;8.00;99.90
22838;DHT22;11585;51.450;-0.240;2023-01-31T06:58:47;8.00;99.90
22838;DHT22;11585;51.450;-0.240;2023-01-31T07:01:14;8.00;99.90
22838;DHT22;11585;51.450;-0.240;2023-01-31T07:06:45;8.00;99.90
22838;DHT22;11585;51.450;-0.240;2023-01-31T07:09:10;7.70;99.90
22838;DHT22;11585;51.450;-0.240;2023-01-31T07:11:57;8.00;99.90
22838;DHT22;11585;51.450;-0.240;2023-01-31T07:14:23;8.20;99.90
22838;DHT22;11585;51.450;-0.240;2023-01-31T07:16:48;8.00;99.90
22838;DHT22;11585;51.450;-0.240;2023-01-31T07:19:14;8.00;99.90
22838;DHT22;11585;51.450;-0.240;2023-01-31T07:21:59;8.00;99.90
22838;DHT22;11585;51.450;-0.240;2023-01-31T07:24:24;8.00;99.90
22838;DHT22;11585;51.450;-0.240;2023-01-31T07:26:51;8.00;99.90
22838;DHT22;11585;51.450;-0.240;2023-01-31T07:29:18;8.00;99.90
22838;DHT22;11585;51.450;-0.240;2023-01-31T07:31:44;8.10;99.90
22838;DHT22;11585;51.450;-0.240;2023-01-31T07:34:09;8.10;99.90
22838;DHT22;11585;51.450;-0.240;2023-01-31T07:36:35;8.00;99.90
22838;DHT22;11585;51.450;-0.240;2023-01-31T07:39:00;8.00;99.90
22838;DHT22;11585;51.450;-0.240;2023-01-31T07:41:26;8.20;99.90
22838;DHT22;11585;51.450;-0.240;2023-01-31T07:43:53;8.10;99.90
22838;DHT22;11585;51.450;-0.240;2023-01-31T07:46:19;8.00;99.90
22838;DHT22;11585;51.450;-0.240;2023-01-31T07:48:44;8.10;99.90
22838;DHT22;11585;51.450;-0.240;2023-01-31T07:51:11;8.60;99.90
22838;DHT22;11585;51.450;-0.240;2023-01-31T07:53:55;8.40;99.90
22838;DHT22;11585;51.450;-0.240;2023-01-31T07:56:21;8.10;99.90
22838;DHT22;11585;51.450;-0.240;2023-01-31T07:58:48;8.10;99.90
22838;DHT22;11585;51.450;-0.240;2023-01-31T08:04:24;8.10;99.90
22838;DHT22;11585;51.450;-0.240;2023-01-31T08:06:53;8.10;99.90
22838;DHT22;11585;51.450;-0.240;2023-01-31T08:09:19;8.20;99.90
22838;DHT22;11585;51.450;-0.240;2023-01-31T08:11:46;8.10;99.90
22838;DHT22;11585;51.450;-0.240;2023-01-31T08:14:11;8.20;99.90
22838;DHT22;11585;51.450;-0.240;2023-01-31T08:16:37;8.20;99.90
22838;DHT22;11585;51.450;-0.240;2023-01-31T08:19:03;8.20;99.90
22838;DHT22;11585;51.450;-0.240;2023-01-31T08:21:29;8.20;99.90
22838;DHT22;11585;51.450;-0.240;2023-01-31T08:23:54;8.20;99.90
22838;DHT22;11585;51.450;-0.240;2023-01-31T08:26:23;8.20;99.90
22838;DHT22;11585;51.450;-0.240;2023-01-31T08:28:51;8.30;99.90
22838;DHT22;11585;51.450;-0.240;2023-01-31T08:31:24;8.40;99.90
22838;DHT22;11585;51.450;-0.240;2023-01-31T08:33:50;8.30;99.90
22838;DHT22;11585;51.450;-0.240;2023-01-31T08:36:25;8.30;99.90
22838;DHT22;11585;51.450;-0.240;2023-01-31T08:38:51;8.30;99.90
22838;DHT22;11585;51.450;-0.240;2023-01-31T08:41:19;8.30;99.90
22838;DHT22;11585;51.450;-0.240;2023-01-31T08:46:48;8.30;99.90
22838;DHT22;11585;51.450;-0.240;2023-01-31T08:49:14;8.30;99.90
22838;DHT22;11585;51.450;-0.240;2023-01-31T08:51:59;8.30;99.90
22838;DHT22;11585;51.450;-0.240;2023-01-31T08:54:25;8.40;99.90
22838;DHT22;11585;51.450;-0.240;2023-01-31T08:56:50;8.40;99.90
22838;DHT22;11585;51.450;-0.240;2023-01-31T08:59:18;8.40;99.90
22838;DHT22;11585;51.450;-0.240;2023-01-31T09:01:44;8.40;99.90
22838;DHT22;11585;51.450;-0.240;2023-01-31T09:04:11;8.40;99.90
22838;DHT22;11585;51.450;-0.240;2023-01-31T09:06:36;8.40;99.90
22838;DHT22;11585;51.450;-0.240;2023-01-31T09:09:02;8.80;99.90
22838;DHT22;11585;51.450;-0.240;2023-01-31T09:11:28;8.40;99.90
22838;DHT22;11585;51.450;-0.240;2023-01-31T09:13:55;8.50;99.90
22838;DHT22;11585;51.450;-0.240;2023-01-31T09:16:22;8.50;99.90
22838;DHT22;11585;51.450;-0.240;2023-01-31T09:18:59;8.50;99.90
22838;DHT22;11585;51.450;-0.240;2023-01-31T09:21:27;8.50;99.90
22838;DHT22;11585;51.450;-0.240;2023-01-31T09:23:58;8.90;99.90
22838;DHT22;11585;51.450;-0.240;2023-01-31T09:26:24;9.70;99.90
22838;DHT22;11585;51.450;-0.240;2023-01-31T09:28:50;8.50;99.90
22838;DHT22;11585;51.450;-0.240;2023-01-31T09:31:18;8.50;99.90
22838;DHT22;11585;51.450;-0.240;2023-01-31T09:33:46;8.50;99.90
22838;DHT22;11585;51.450;-0.240;2023-01-31T09:36:17;8.60;99.90
22838;DHT22;11585;51.450;-0.240;2023-01-31T09:38:45;8.60;99.90
22838;DHT22;11585;51.450;-0.240;2023-01-31T09:44:22;8.60;99.90
22838;DHT22;11585;51.450;-0.240;2023-01-31T09:47:12;8.60;99.90
22838;DHT22;11585;51.450;-0.240;2023-01-31T09:52:52;8.70;99.90
22838;DHT22;11585;51.450;-0.240;2023-01-31T10:06:33;8.70;99.90
22838;DHT22;11585;51.450;-0.240;2023-01-31T10:25:43;8.90;99.90
22838;DHT22;11585;51.450;-0.240;2023-01-31T10:28:16;8.90;99.90
22838;DHT22;11585;51.450;-0.240;2023-01-31T10:33:57;8.90;99.90
22838;DHT22;11585;51.450;-0.240;2023-01-31T10:36:26;9.00;99.90
22838;DHT22;11585;51.450;-0.240;2023-01-31T10:45:47;7.90;99.90
22838;DHT22;11585;51.450;-0.240;2023-01-31T10:48:22;9.00;99.90
22838;DHT22;11585;51.450;-0.240;2023-01-31T10:54:09;9.00;99.90
22838;DHT22;11585;51.450;-0.240;2023-01-31T10:56:41;9.10;99.90
22838;DHT22;11585;51.450;-0.240;2023-01-31T10:59:31;9.10;99.90
22838;DHT22;11585;51.450;-0.240;2023-01-31T11:02:08;9.10;99.90
22838;DHT22;11585;51.450;-0.240;2023-01-31T11:04:54;9.10;99.90
22838;DHT22;11585;51.450;-0.240;2023-01-31T11:07:20;9.10;99.90
22838;DHT22;11585;51.450;-0.240;2023-01-31T11:09:56;9.20;99.90
22838;DHT22;11585;51.450;-0.240;2023-01-31T11:15:30;9.30;99.90
22838;DHT22;11585;51.450;-0.240;2023-01-31T11:18:02;9.30;99.90
22838;DHT22;11585;51.450;-0.240;2023-01-31T11:20:34;9.30;99.90
22838;DHT22;11585;51.450;-0.240;2023-01-31T11:23:24;9.30;99.90
22838;DHT22;11585;51.450;-0.240;2023-01-31T11:25:58;9.60;99.90
22838;DHT22;11585;51.450;-0.240;2023-01-31T11:28:34;9.40;99.90
22838;DHT22;11585;51.450;-0.240;2023-01-31T11:31:05;9.40;99.90
22838;DHT22;11585;51.450;-0.240;2023-01-31T11:36:41;9.40;99.90
22838;DHT22;11585;51.450;-0.240;2023-01-31T11:39:28;9.50;99.90
22838;DHT22;11585;51.450;-0.240;2023-01-31T11:45:20;9.50;99.90
22838;DHT22;11585;51.450;-0.240;2023-01-31T11:48:17;9.60;99.90
22838;DHT22;11585;51.450;-0.240;2023-01-31T11:50:53;9.60;99.90
22838;DHT22;11585;51.450;-0.240;2023-01-31T11:53:47;9.60;99.90
22838;DHT22;11585;51.450;-0.240;2023-01-31T11:56:22;9.50;99.90
22838;DHT22;11585;51.450;-0.240;2023-01-31T11:58:58;9.70;99.90
22838;DHT22;11585;51.450;-0.240;2023-01-31T12:01:29;9.60;99.90
22838;DHT22;11585;51.450;-0.240;2023-01-31T12:04:00;9.70;99.90
22838;DHT22;11585;51.450;-0.240;2023-01-31T12:06:44;9.80;99.90
22838;DHT22;11585;51.450;-0.240;2023-01-31T12:09:24;9.70;99.90
22838;DHT22;11585;51.450;-0.240;2023-01-31T12:15:22;9.80;99.90
22838;DHT22;11585;51.450;-0.240;2023-01-31T12:17:54;9.90;99.90
22838;DHT22;11585;51.450;-0.240;2023-01-31T12:23:59;10.00;99.90
22838;DHT22;11585;51.450;-0.240;2023-01-31T12:26:49;10.00;99.90
22838;DHT22;11585;51.450;-0.240;2023-01-31T13:06:12;10.30;99.90
22838;DHT22;11585;51.450;-0.240;2023-01-31T13:09:20;10.40;99.90
22838;DHT22;11585;51.450;-0.240;2023-01-31T13:14:48;10.30;99.90
22838;DHT22;11585;51.450;-0.240;2023-01-31T13:17:22;10.50;99.90
22838;DHT22;11585;51.450;-0.240;2023-01-31T13:19:55;10.50;99.90
22838;DHT22;11585;51.450;-0.240;2023-01-31T13:26:17;10.50;99.90
22838;DHT22;11585;51.450;-0.240;2023-01-31T13:29:02;9.80;99.90
22838;DHT22;11585;51.450;-0.240;2023-01-31T13:37:57;10.70;99.90
22838;DHT22;11585;51.450;-0.240;2023-01-31T13:40:35;10.70;99.90
22838;DHT22;11585;51.450;-0.240;2023-01-31T13:43:28;10.70;99.90
22838;DHT22;11585;51.450;-0.240;2023-01-31T13:46:05;10.80;99.90
22838;DHT22;11585;51.450;-0.240;2023-01-31T13:49:12;10.80;99.90
22838;DHT22;11585;51.450;-0.240;2023-01-31T13:51:50;10.80;99.90
22838;DHT22;11585;51.450;-0.240;2023-01-31T13:54:34;10.90;99.90
22838;DHT22;11585;51.450;-0.240;2023-01-31T13:57:06;10.90;99.90
22838;DHT22;11585;51.450;-0.240;2023-01-31T13:59:40;10.90;99.90
22838;DHT22;11585;51.450;-0.240;2023-01-31T14:02:23;10.90;99.90
22838;DHT22;11585;51.450;-0.240;2023-01-31T14:04:49;10.90;99.90
22838;DHT22;11585;51.450;-0.240;2023-01-31T14:07:24;11.00;99.90
22838;DHT22;11585;51.450;-0.240;2023-01-31T14:12:36;11.00;99.90
22838;DHT22;11585;51.450;-0.240;2023-01-31T14:18:39;11.10;99.90
22838;DHT22;11585;51.450;-0.240;2023-01-31T14:24:01;11.10;99.90
22838;DHT22;11585;51.450;-0.240;2023-01-31T14:29:18;11.10;99.90
22838;DHT22;11585;51.450;-0.240;2023-01-31T14:34:49;11.20;99.90
22838;DHT22;11585;51.450;-0.240;2023-01-31T14:39:54;11.10;99.90
22838;DHT22;11585;51.450;-0.240;2023-01-31T14:57:23;11.30;99.90
22838;DHT22;11585;51.450;-0.240;2023-01-31T14:59:52;11.20;99.90
22838;DHT22;11585;51.450;-0.240;2023-01-31T15:07:28;11.30;99.90
22838;DHT22;11585;51.450;-0.240;2023-01-31T15:09:53;11.30;99.90
22838;DHT22;11585;51.450;-0.240;2023-01-31T15:12:54;11.30;99.90
22838;DHT22;11585;51.450;-0.240;2023-01-31T15:18:00;11.30;99.90
22838;DHT22;11585;51.450;-0.240;2023-01-31T15:20:49;11.30;99.90
22838;DHT22;11585;51.450;-0.240;2023-01-31T15:26:19;11.30;99.90
22838;DHT22;11585;51.450;-0.240;2023-01-31T15:28:46;11.30;99.90
22838;DHT22;11585;51.450;-0.240;2023-01-31T15:31:31;11.30;99.90
22838;DHT22;11585;51.450;-0.240;2023-01-31T15:34:04;11.30;99.90
22838;DHT22;11585;51.450;-0.240;2023-01-31T15:36:41;11.30;99.90
22838;DHT22;11585;51.450;-0.240;2023-01-31T15:39:25;11.30;99.90
22838;DHT22;11585;51.450;-0.240;2023-01-31T15:42:19;11.30;99.90
22838;DHT22;11585;51.450;-0.240;2023-01-31T15:44:45;11.30;99.90
22838;DHT22;11585;51.450;-0.240;2023-01-31T15:47:21;11.40;99.90
22838;DHT22;11585;51.450;-0.240;2023-01-31T15:49:47;11.30;99.90
22838;DHT22;11585;51.450;-0.240;2023-01-31T15:55:38;11.30;99.90
22838;DHT22;11585;51.450;-0.240;2023-01-31T15:58:05;11.30;99.90
22838;DHT22;11585;51.450;-0.240;2023-01-31T16:00:36;11.20;99.90
22838;DHT22;11585;51.450;-0.240;2023-01-31T16:03:22;11.20;99.90
22838;DHT22;11585;51.450;-0.240;2023-01-31T16:05:51;11.20;99.90
22838;DHT22;11585;51.450;-0.240;2023-01-31T16:08:40;11.20;99.90
22838;DHT22;11585;51.450;-0.240;2023-01-31T16:11:08;11.20;99.90
22838;DHT22;11585;51.450;-0.240;2023-01-31T16:13:54;11.20;99.90
22838;DHT22;11585;51.450;-0.240;2023-01-31T16:16:21;11.20;99.90
22838;DHT22;11585;51.450;-0.240;2023-01-31T16:18:51;11.20;99.90
22838;DHT22;11585;51.450;-0.240;2023-01-31T16:21:25;11.20;99.90
22838;DHT22;11585;51.450;-0.240;2023-01-31T16:27:14;11.10;99.90
22838;DHT22;11585;51.450;-0.240;2023-01-31T16:29:49;11.10;99.90
22838;DHT22;11585;51.450;-0.240;2023-01-31T16:35:28;11.10;99.90
22838;DHT22;11585;51.450;-0.240;2023-01-31T16:38:03;11.10;99.90
22838;DHT22;11585;51.450;-0.240;2023-01-31T16:40:36;11.10;99.90
22838;DHT22;11585;51.450;-0.240;2023-01-31T16:43:25;11.10;99.90
22838;DHT22;11585;51.450;-0.240;2023-01-31T16:45:59;11.10;99.90
22838;DHT22;11585;51.450;-0.240;2023-01-31T16:48:33;11.00;99.90
22838;DHT22;11585;51.450;-0.240;2023-01-31T16:54:19;11.00;99.90
22838;DHT22;11585;51.450;-0.240;2023-01-31T16:56:47;11.00;99.90
22838;DHT22;11585;51.450;-0.240;2023-01-31T17:02:02;10.90;99.90
22838;DHT22;11585;51.450;-0.240;2023-01-31T17:04:29;11.00;99.90
22838;DHT22;11585;51.450;-0.240;2023-01-31T17:07:05;11.00;99.90
22838;DHT22;11585;51.450;-0.240;2023-01-31T17:09:32;11.00;99.90
22838;DHT22;11585;51.450;-0.240;2023-01-31T17:12:02;10.90;99.90
22838;DHT22;11585;51.450;-0.240;2023-01-31T17:14:29;10.90;99.90
22838;DHT22;11585;51.450;-0.240;2023-01-31T17:16:54;11.00;99.90
22838;DHT22;11585;51.450;-0.240;2023-01-31T17:19:23;10.90;99.90
22838;DHT22;11585;51.450;-0.240;2023-01-31T17:22:08;11.00;99.90
22838;DHT22;11585;51.450;-0.240;2023-01-31T17:24:34;10.90;99.90
22838;DHT22;11585;51.450;-0.240;2023-01-31T17:27:03;10.90;99.90
22838;DHT22;11585;51.450;-0.240;2023-01-31T17:29:31;10.90;99.90
22838;DHT22;11585;51.450;-0.240;2023-01-31T17:35:00;10.90;99.90
22838;DHT22;11585;51.450;-0.240;2023-01-31T17:37:26;10.90;99.90
22838;DHT22;11585;51.450;-0.240;2023-01-31T17:39:52;10.90;99.90
22838;DHT22;11585;51.450;-0.240;2023-01-31T17:45:39;10.80;99.90
22838;DHT22;11585;51.450;-0.240;2023-01-31T17:48:05;10.80;99.90
22838;DHT22;11585;51.450;-0.240;2023-01-31T17:50:30;10.80;99.90
22838;DHT22;11585;51.450;-0.240;2023-01-31T17:53:16;10.80;99.90
22838;DHT22;11585;51.450;-0.240;2023-01-31T17:55:42;10.80;99.90
22838;DHT22;11585;51.450;-0.240;2023-01-31T17:58:12;10.80;99.90
22838;DHT22;11585;51.450;-0.240;2023-01-31T18:00:38;10.80;99.90
22838;DHT22;11585;51.450;-0.240;2023-01-31T18:03:08;10.70;99.90
22838;DHT22;11585;51.450;-0.240;2023-01-31T18:05:34;10.70;99.90
22838;DHT22;11585;51.450;-0.240;2023-01-31T18:08:00;10.70;99.90
22838;DHT22;11585;51.450;-0.240;2023-01-31T18:10:26;10.70;99.90
22838;DHT22;11585;51.450;-0.240;2023-01-31T18:12:51;10.70;99.90
22838;DHT22;11585;51.450;-0.240;2023-01-31T18:15:20;10.70;99.90
22838;DHT22;11585;51.450;-0.240;2023-01-31T18:17:46;10.70;99.90
22838;DHT22;11585;51.450;-0.240;2023-01-31T18:20:11;10.70;99.90
22838;DHT22;11585;51.450;-0.240;2023-01-31T18:25:24;10.70;99.90
22838;DHT22;11585;51.450;-0.240;2023-01-31T18:27:50;10.60;99.90
22838;DHT22;11585;51.450;-0.240;2023-01-31T18:30:16;10.60;99.90
22838;DHT22;11585;51.450;-0.240;2023-01-31T18:32:41;10.60;99.90
22838;DHT22;11585;51.450;-0.240;2023-01-31T18:35:07;10.60;99.90
22838;DHT22;11585;51.450;-0.240;2023-01-31T18:37:33;10.60;99.90
22838;DHT22;11585;51.450;-0.240;2023-01-31T18:39:59;10.60;99.90
22838;DHT22;11585;51.450;-0.240;2023-01-31T18:42:24;10.70;99.90
22838;DHT22;11585;51.450;-0.240;2023-01-31T18:44:50;10.60;99.90
22838;DHT22;11585;51.450;-0.240;2023-01-31T18:47:16;10.60;99.90
22838;DHT22;11585;51.450;-0.240;2023-01-31T18:49:42;10.60;99.90
22838;DHT22;11585;51.450;-0.240;2023-01-31T18:52:26;10.50;99.90
22838;DHT22;11585;51.450;-0.240;2023-01-31T18:55:00;10.50;99.90
22838;DHT22;11585;51.450;-0.240;2023-01-31T18:57:25;10.60;99.90
22838;DHT22;11585;51.450;-0.240;2023-01-31T18:59:51;10.50;99.90
22838;DHT22;11585;51.450;-0.240;2023-01-31T19:02:19;10.50;99.90
22838;DHT22;11585;51.450;-0.240;2023-01-31T19:04:44;10.50;99.90
22838;DHT22;11585;51.450;-0.240;2023-01-31T19:07:10;10.50;99.90
22838;DHT22;11585;51.450;-0.240;2023-01-31T19:09:36;10.50;99.90
22838;DHT22;11585;51.450;-0.240;2023-01-31T19:12:02;10.50;99.90
22838;DHT22;11585;51.450;-0.240;2023-01-31T19:14:27;10.50;99.90
22838;DHT22;11585;51.450;-0.240;2023-01-31T19:16:59;10.50;99.90
22838;DHT22;11585;51.450;-0.240;2023-01-31T19:19:25;10.90;99.90
22838;DHT22;11585;51.450;-0.240;2023-01-31T19:24:55;10.50;99.90
22838;DHT22;11585;51.450;-0.240;2023-01-31T19:27:21;10.50;99.90
22838;DHT22;11585;51.450;-0.240;2023-01-31T19:29:47;10.40;99.90
22838;DHT22;11585;51.450;-0.240;2023-01-31T19:32:34;10.50;99.90
22838;DHT22;11585;51.450;-0.240;2023-01-31T19:34:59;10.40;99.90
22838;DHT22;11585;51.450;-0.240;2023-01-31T19:37:27;10.40;99.90
22838;DHT22;11585;51.450;-0.240;2023-01-31T19:39:53;10.40;99.90
22838;DHT22;11585;51.450;-0.240;2023-01-31T19:42:19;10.40;99.90
22838;DHT22;11585;51.450;-0.240;2023-01-31T19:44:45;10.40;99.90
22838;DHT22;11585;51.450;-0.240;2023-01-31T19:47:11;10.40;99.90
22838;DHT22;11585;51.450;-0.240;2023-01-31T19:49:37;10.40;99.90
22838;DHT22;11585;51.450;-0.240;2023-01-31T19:52:23;10.40;99.90
22838;DHT22;11585;51.450;-0.240;2023-01-31T19:54:49;10.40;99.90
22838;DHT22;11585;51.450;-0.240;2023-01-31T19:57:15;10.30;99.90
22838;DHT22;11585;51.450;-0.240;2023-01-31T19:59:46;10.30;99.90